AIC705 VTSP-VOBL
Flight info
| Callsign | AIC705 |
|---|---|
| Flight time | N/A |
| Altitude | 40000 |
| Route | UBNEN1B UBNEN L645 IDKUT L510 AGEGA DCT DUMAR P761 MMV W117 XIVIL XIVIL7E |
| Aircraft | B772/H-SDE2E3FGHIJ5LORVWXY/LB1D1 |
Departure
| Time | N/A |
|---|---|
| Airport | Phuket International Airport (VTSP) |
Arrival
| Time | 2026-04-27 12:34 |
|---|---|
| Airport | Kempegowda International Airport Bengaluru (VOBL) |
| Time | Latitude | Longitude | Altitude | Speed | Heading |
|---|---|---|---|---|---|
| 2026-04-27 12:30 | 13.20506 | 77.56068 | 6132 ft | 212 kts | 84° |
| 2026-04-27 12:31 | 13.20632 | 77.57559 | 6115 ft | 206 kts | 84° |
| 2026-04-27 12:31 | 13.20719 | 77.58971 | 6096 ft | 188 kts | 87° |
| 2026-04-27 12:31 | 13.20727 | 77.60269 | 6048 ft | 176 kts | 89° |
| 2026-04-27 12:31 | 13.20722 | 77.61519 | 5841 ft | 174 kts | 89° |
| 2026-04-27 12:32 | 13.20722 | 77.62751 | 5528 ft | 170 kts | 89° |
| 2026-04-27 12:32 | 13.20739 | 77.63952 | 5182 ft | 170 kts | 88° |
| 2026-04-27 12:32 | 13.20774 | 77.65175 | 4740 ft | 171 kts | 89° |
| 2026-04-27 12:32 | 13.20762 | 77.66399 | 4287 ft | 172 kts | 90° |
| 2026-04-27 12:33 | 13.20733 | 77.67617 | 3789 ft | 170 kts | 92° |
| 2026-04-27 12:33 | 13.20714 | 77.68830 | 3195 ft | 170 kts | 91° |
| 2026-04-27 12:33 | 13.20710 | 77.70013 | 3022 ft | 160 kts | 90° |
| 2026-04-27 12:33 | 13.20702 | 77.70986 | 3016 ft | 80 kts | 90° |
| 2026-04-27 12:34 | 13.20655 | 77.71173 | 3016 ft | 19 kts | 163° |
| 2026-04-27 12:34 | 13.20546 | 77.71192 | 3015 ft | 9 kts | 144° |
| 2026-04-27 12:34 | 13.20521 | 77.71246 | 3015 ft | 8 kts | 112° |
| 2026-04-27 12:34 | 13.20477 | 77.71279 | 3015 ft | 9 kts | 176° |
| 2026-04-27 12:35 | 13.20418 | 77.71277 | 3016 ft | 9 kts | 181° |
| 2026-04-27 12:35 | 13.20358 | 77.71275 | 3016 ft | 9 kts | 181° |
| 2026-04-27 12:35 | 13.20298 | 77.71277 | 3016 ft | 9 kts | 168° |
| 2026-04-27 12:35 | 13.20260 | 77.71319 | 3016 ft | 9 kts | 100° |
| 2026-04-27 12:36 | 13.20257 | 77.71365 | 3016 ft | 5 kts | 93° |
| 2026-04-27 12:36 | 13.20254 | 77.71386 | 3018 ft | 3 kts | 105° |
| 2026-04-27 12:36 | 13.20233 | 77.71397 | 3016 ft | 4 kts | 175° |
| 2026-04-27 12:36 | 13.20206 | 77.71395 | 3016 ft | 4 kts | 182° |
| 2026-04-27 12:37 | 13.20181 | 77.71395 | 3016 ft | 2 kts | 178° |
| 2026-04-27 12:37 | 13.20168 | 77.71394 | 3016 ft | 2 kts | 180° |
| 2026-04-27 12:37 | 13.20166 | 77.71394 | 3016 ft | 0 kts | 180° |